sensor_id;sensor_type;location;lat;lon;timestamp;P1;durP1;ratioP1;P2;durP2;ratioP2
20334;SDS011;10325;51.468;5.804;2023-03-21T00:00:58;3.80;;;1.47;;
20334;SDS011;10325;51.468;5.804;2023-03-21T00:03:31;2.63;;;1.70;;
20334;SDS011;10325;51.468;5.804;2023-03-21T00:06:09;2.17;;;1.60;;
20334;SDS011;10325;51.468;5.804;2023-03-21T00:08:55;2.70;;;1.83;;
20334;SDS011;10325;51.468;5.804;2023-03-21T00:11:25;2.03;;;1.40;;
20334;SDS011;10325;51.468;5.804;2023-03-21T00:13:58;2.23;;;1.77;;
20334;SDS011;10325;51.468;5.804;2023-03-21T00:16:31;2.07;;;1.50;;
20334;SDS011;10325;51.468;5.804;2023-03-21T00:19:06;2.97;;;1.80;;
20334;SDS011;10325;51.468;5.804;2023-03-21T00:21:36;3.37;;;1.57;;
20334;SDS011;10325;51.468;5.804;2023-03-21T00:24:28;3.87;;;2.00;;
20334;SDS011;10325;51.468;5.804;2023-03-21T00:27:01;4.27;;;1.60;;
20334;SDS011;10325;51.468;5.804;2023-03-21T00:29:52;3.60;;;1.80;;
20334;SDS011;10325;51.468;5.804;2023-03-21T00:32:26;3.07;;;1.43;;
20334;SDS011;10325;51.468;5.804;2023-03-21T00:34:57;2.73;;;1.63;;
20334;SDS011;10325;51.468;5.804;2023-03-21T00:37:52;2.13;;;1.60;;
20334;SDS011;10325;51.468;5.804;2023-03-21T00:40:22;2.47;;;1.70;;
20334;SDS011;10325;51.468;5.804;2023-03-21T00:43:01;2.53;;;1.50;;
20334;SDS011;10325;51.468;5.804;2023-03-21T00:45:32;3.30;;;1.67;;
20334;SDS011;10325;51.468;5.804;2023-03-21T00:48:03;3.23;;;1.63;;
20334;SDS011;10325;51.468;5.804;2023-03-21T00:50:33;2.10;;;1.50;;
20334;SDS011;10325;51.468;5.804;2023-03-21T00:53:08;3.33;;;1.83;;
20334;SDS011;10325;51.468;5.804;2023-03-21T00:55:36;3.47;;;1.63;;
20334;SDS011;10325;51.468;5.804;2023-03-21T00:58:06;2.87;;;1.50;;
20334;SDS011;10325;51.468;5.804;2023-03-21T01:00:35;2.77;;;1.73;;
20334;SDS011;10325;51.468;5.804;2023-03-21T01:03:05;2.10;;;1.50;;
20334;SDS011;10325;51.468;5.804;2023-03-21T01:05:51;2.50;;;1.67;;
20334;SDS011;10325;51.468;5.804;2023-03-21T01:08:35;1.60;;;1.40;;
20334;SDS011;10325;51.468;5.804;2023-03-21T01:11:23;2.40;;;1.50;;
20334;SDS011;10325;51.468;5.804;2023-03-21T01:13:57;2.93;;;1.80;;
20334;SDS011;10325;51.468;5.804;2023-03-21T01:16:47;3.10;;;1.50;;
20334;SDS011;10325;51.468;5.804;2023-03-21T01:19:23;2.70;;;1.97;;
20334;SDS011;10325;51.468;5.804;2023-03-21T01:22:16;2.53;;;1.60;;
20334;SDS011;10325;51.468;5.804;2023-03-21T01:24:49;2.60;;;1.63;;
20334;SDS011;10325;51.468;5.804;2023-03-21T01:27:29;2.60;;;1.50;;
20334;SDS011;10325;51.468;5.804;2023-03-21T01:29:57;2.67;;;1.60;;
20334;SDS011;10325;51.468;5.804;2023-03-21T01:32:34;3.20;;;1.80;;
20334;SDS011;10325;51.468;5.804;2023-03-21T01:35:05;2.17;;;1.60;;
20334;SDS011;10325;51.468;5.804;2023-03-21T01:37:35;2.03;;;1.50;;
20334;SDS011;10325;51.468;5.804;2023-03-21T01:40:07;1.77;;;1.40;;
20334;SDS011;10325;51.468;5.804;2023-03-21T01:42:46;2.40;;;1.23;;
20334;SDS011;10325;51.468;5.804;2023-03-21T01:48:28;2.20;;;1.53;;
20334;SDS011;10325;51.468;5.804;2023-03-21T01:51:00;3.13;;;1.67;;
20334;SDS011;10325;51.468;5.804;2023-03-21T01:53:33;1.77;;;1.40;;
20334;SDS011;10325;51.468;5.804;2023-03-21T01:56:18;2.60;;;1.40;;
20334;SDS011;10325;51.468;5.804;2023-03-21T01:59:08;3.33;;;1.60;;
20334;SDS011;10325;51.468;5.804;2023-03-21T02:01:42;1.27;;;1.00;;
20334;SDS011;10325;51.468;5.804;2023-03-21T02:04:15;3.93;;;1.60;;
20334;SDS011;10325;51.468;5.804;2023-03-21T02:07:04;2.77;;;1.63;;
20334;SDS011;10325;51.468;5.804;2023-03-21T02:09:39;2.93;;;1.60;;
20334;SDS011;10325;51.468;5.804;2023-03-21T02:12:19;1.83;;;1.30;;
20334;SDS011;10325;51.468;5.804;2023-03-21T02:14:51;2.10;;;1.40;;
20334;SDS011;10325;51.468;5.804;2023-03-21T02:20:19;1.70;;;1.30;;
20334;SDS011;10325;51.468;5.804;2023-03-21T02:23:17;1.83;;;1.40;;
20334;SDS011;10325;51.468;5.804;2023-03-21T02:26:15;3.10;;;1.83;;
20334;SDS011;10325;51.468;5.804;2023-03-21T02:32:40;2.33;;;1.30;;
20334;SDS011;10325;51.468;5.804;2023-03-21T02:41:24;2.97;;;1.53;;
20334;SDS011;10325;51.468;5.804;2023-03-21T02:53:16;2.23;;;1.27;;
20334;SDS011;10325;51.468;5.804;2023-03-21T02:55:50;2.50;;;1.47;;
20334;SDS011;10325;51.468;5.804;2023-03-21T02:58:22;2.90;;;1.50;;
20334;SDS011;10325;51.468;5.804;2023-03-21T03:00:56;1.87;;;1.30;;
20334;SDS011;10325;51.468;5.804;2023-03-21T03:03:25;2.47;;;1.60;;
20334;SDS011;10325;51.468;5.804;2023-03-21T03:06:01;2.40;;;1.30;;
20334;SDS011;10325;51.468;5.804;2023-03-21T03:11:49;2.27;;;1.67;;
20334;SDS011;10325;51.468;5.804;2023-03-21T03:20:44;1.93;;;1.40;;
20334;SDS011;10325;51.468;5.804;2023-03-21T03:23:56;2.20;;;1.50;;
20334;SDS011;10325;51.468;5.804;2023-03-21T03:26:33;3.43;;;1.67;;
20334;SDS011;10325;51.468;5.804;2023-03-21T03:29:14;2.27;;;1.83;;
20334;SDS011;10325;51.468;5.804;2023-03-21T03:31:55;2.43;;;1.63;;
20334;SDS011;10325;51.468;5.804;2023-03-21T03:34:36;3.73;;;1.90;;
20334;SDS011;10325;51.468;5.804;2023-03-21T03:37:10;2.90;;;1.67;;
20334;SDS011;10325;51.468;5.804;2023-03-21T03:39:59;3.00;;;1.90;;
20334;SDS011;10325;51.468;5.804;2023-03-21T03:42:54;2.80;;;1.60;;
20334;SDS011;10325;51.468;5.804;2023-03-21T03:45:31;2.93;;;2.00;;
20334;SDS011;10325;51.468;5.804;2023-03-21T03:48:12;3.83;;;1.83;;
20334;SDS011;10325;51.468;5.804;2023-03-21T03:51:06;3.53;;;1.60;;
20334;SDS011;10325;51.468;5.804;2023-03-21T03:53:45;2.73;;;1.87;;
20334;SDS011;10325;51.468;5.804;2023-03-21T03:57:02;4.17;;;2.07;;
20334;SDS011;10325;51.468;5.804;2023-03-21T03:59:39;2.93;;;1.93;;
20334;SDS011;10325;51.468;5.804;2023-03-21T04:02:12;7.10;;;1.90;;
20334;SDS011;10325;51.468;5.804;2023-03-21T04:04:49;2.93;;;1.90;;
20334;SDS011;10325;51.468;5.804;2023-03-21T04:07:20;6.07;;;1.83;;
20334;SDS011;10325;51.468;5.804;2023-03-21T04:09:49;3.10;;;1.67;;
20334;SDS011;10325;51.468;5.804;2023-03-21T04:12:23;3.13;;;1.80;;
20334;SDS011;10325;51.468;5.804;2023-03-21T04:14:56;5.93;;;1.93;;
20334;SDS011;10325;51.468;5.804;2023-03-21T04:17:36;4.53;;;1.67;;
20334;SDS011;10325;51.468;5.804;2023-03-21T04:20:20;5.07;;;1.70;;
20334;SDS011;10325;51.468;5.804;2023-03-21T04:23:04;3.50;;;1.80;;
20334;SDS011;10325;51.468;5.804;2023-03-21T04:25:41;3.23;;;1.93;;
20334;SDS011;10325;51.468;5.804;2023-03-21T04:28:25;2.63;;;1.80;;
20334;SDS011;10325;51.468;5.804;2023-03-21T04:31:03;2.97;;;1.50;;
20334;SDS011;10325;51.468;5.804;2023-03-21T04:33:50;2.53;;;1.67;;
20334;SDS011;10325;51.468;5.804;2023-03-21T04:36:21;3.00;;;1.77;;
20334;SDS011;10325;51.468;5.804;2023-03-21T04:39:07;4.30;;;1.50;;
20334;SDS011;10325;51.468;5.804;2023-03-21T04:41:44;4.13;;;1.83;;
20334;SDS011;10325;51.468;5.804;2023-03-21T04:44:24;2.70;;;1.80;;
20334;SDS011;10325;51.468;5.804;2023-03-21T04:46:58;2.97;;;1.80;;
20334;SDS011;10325;51.468;5.804;2023-03-21T04:49:29;2.77;;;1.67;;
20334;SDS011;10325;51.468;5.804;2023-03-21T04:52:00;3.77;;;1.60;;
20334;SDS011;10325;51.468;5.804;2023-03-21T04:54:32;2.20;;;1.43;;
20334;SDS011;10325;51.468;5.804;2023-03-21T04:57:02;3.67;;;2.10;;
20334;SDS011;10325;51.468;5.804;2023-03-21T04:59:33;5.03;;;2.10;;
20334;SDS011;10325;51.468;5.804;2023-03-21T05:02:02;2.87;;;1.73;;
20334;SDS011;10325;51.468;5.804;2023-03-21T05:04:32;2.57;;;1.80;;
20334;SDS011;10325;51.468;5.804;2023-03-21T05:07:08;2.33;;;1.83;;
20334;SDS011;10325;51.468;5.804;2023-03-21T05:09:38;3.97;;;1.60;;
20334;SDS011;10325;51.468;5.804;2023-03-21T05:12:10;4.30;;;1.90;;
20334;SDS011;10325;51.468;5.804;2023-03-21T05:14:41;2.57;;;1.70;;
20334;SDS011;10325;51.468;5.804;2023-03-21T05:17:12;2.87;;;1.70;;
20334;SDS011;10325;51.468;5.804;2023-03-21T05:19:52;2.97;;;1.77;;
20334;SDS011;10325;51.468;5.804;2023-03-21T05:22:25;2.20;;;1.60;;
20334;SDS011;10325;51.468;5.804;2023-03-21T05:24:56;3.27;;;1.97;;
20334;SDS011;10325;51.468;5.804;2023-03-21T05:27:45;3.40;;;1.70;;
20334;SDS011;10325;51.468;5.804;2023-03-21T05:33:35;3.33;;;1.70;;
20334;SDS011;10325;51.468;5.804;2023-03-21T05:36:02;2.27;;;1.67;;
20334;SDS011;10325;51.468;5.804;2023-03-21T05:38:33;2.40;;;1.97;;
20334;SDS011;10325;51.468;5.804;2023-03-21T05:41:05;4.10;;;2.57;;
20334;SDS011;10325;51.468;5.804;2023-03-21T05:43:33;4.17;;;1.73;;
20334;SDS011;10325;51.468;5.804;2023-03-21T05:46:04;3.40;;;1.70;;
20334;SDS011;10325;51.468;5.804;2023-03-21T05:48:43;5.20;;;1.90;;
20334;SDS011;10325;51.468;5.804;2023-03-21T05:51:13;2.57;;;1.67;;
20334;SDS011;10325;51.468;5.804;2023-03-21T05:53:47;2.43;;;1.80;;
20334;SDS011;10325;51.468;5.804;2023-03-21T05:56:18;2.90;;;1.90;;
20334;SDS011;10325;51.468;5.804;2023-03-21T05:58:53;2.70;;;1.70;;
20334;SDS011;10325;51.468;5.804;2023-03-21T06:01:24;2.73;;;1.80;;
20334;SDS011;10325;51.468;5.804;2023-03-21T06:03:52;4.23;;;2.03;;
20334;SDS011;10325;51.468;5.804;2023-03-21T06:06:25;3.50;;;2.00;;
20334;SDS011;10325;51.468;5.804;2023-03-21T06:08:57;4.40;;;1.97;;
20334;SDS011;10325;51.468;5.804;2023-03-21T06:11:31;4.50;;;2.47;;
20334;SDS011;10325;51.468;5.804;2023-03-21T06:14:06;4.40;;;2.03;;
20334;SDS011;10325;51.468;5.804;2023-03-21T06:16:38;3.87;;;2.00;;
20334;SDS011;10325;51.468;5.804;2023-03-21T06:19:11;3.83;;;2.40;;
20334;SDS011;10325;51.468;5.804;2023-03-21T06:21:38;7.97;;;2.60;;
20334;SDS011;10325;51.468;5.804;2023-03-21T06:24:09;3.60;;;2.10;;
20334;SDS011;10325;51.468;5.804;2023-03-21T06:26:43;3.37;;;1.93;;
20334;SDS011;10325;51.468;5.804;2023-03-21T06:29:13;4.57;;;2.23;;
20334;SDS011;10325;51.468;5.804;2023-03-21T06:31:44;4.43;;;2.10;;
20334;SDS011;10325;51.468;5.804;2023-03-21T06:34:14;5.00;;;1.90;;
20334;SDS011;10325;51.468;5.804;2023-03-21T06:36:46;3.10;;;2.30;;
20334;SDS011;10325;51.468;5.804;2023-03-21T06:39:16;6.13;;;2.50;;
20334;SDS011;10325;51.468;5.804;2023-03-21T06:41:47;5.17;;;2.37;;
20334;SDS011;10325;51.468;5.804;2023-03-21T06:44:18;2.93;;;1.87;;
20334;SDS011;10325;51.468;5.804;2023-03-21T06:46:51;2.90;;;2.20;;
20334;SDS011;10325;51.468;5.804;2023-03-21T06:49:25;5.47;;;2.10;;
20334;SDS011;10325;51.468;5.804;2023-03-21T06:51:56;3.60;;;2.03;;
20334;SDS011;10325;51.468;5.804;2023-03-21T06:54:27;4.70;;;2.13;;
20334;SDS011;10325;51.468;5.804;2023-03-21T06:57:00;3.73;;;2.03;;
20334;SDS011;10325;51.468;5.804;2023-03-21T06:59:29;3.17;;;2.00;;
20334;SDS011;10325;51.468;5.804;2023-03-21T07:02:00;3.67;;;1.83;;
20334;SDS011;10325;51.468;5.804;2023-03-21T07:04:32;6.70;;;2.27;;
20334;SDS011;10325;51.468;5.804;2023-03-21T07:07:01;3.80;;;2.00;;
20334;SDS011;10325;51.468;5.804;2023-03-21T07:09:31;5.00;;;2.10;;
20334;SDS011;10325;51.468;5.804;2023-03-21T07:12:00;2.53;;;1.97;;
20334;SDS011;10325;51.468;5.804;2023-03-21T07:14:30;3.73;;;2.03;;
20334;SDS011;10325;51.468;5.804;2023-03-21T07:17:02;3.80;;;2.07;;
20334;SDS011;10325;51.468;5.804;2023-03-21T07:19:30;3.60;;;1.90;;
20334;SDS011;10325;51.468;5.804;2023-03-21T07:21:57;3.60;;;2.13;;
20334;SDS011;10325;51.468;5.804;2023-03-21T07:24:41;3.70;;;1.97;;
20334;SDS011;10325;51.468;5.804;2023-03-21T07:27:29;5.73;;;1.93;;
20334;SDS011;10325;51.468;5.804;2023-03-21T07:29:59;4.47;;;2.33;;
20334;SDS011;10325;51.468;5.804;2023-03-21T07:32:34;2.70;;;1.70;;
20334;SDS011;10325;51.468;5.804;2023-03-21T07:35:07;3.87;;;1.90;;
20334;SDS011;10325;51.468;5.804;2023-03-21T07:37:51;3.13;;;1.87;;
20334;SDS011;10325;51.468;5.804;2023-03-21T07:40:25;3.23;;;1.83;;
20334;SDS011;10325;51.468;5.804;2023-03-21T07:42:56;3.20;;;1.60;;
20334;SDS011;10325;51.468;5.804;2023-03-21T07:45:32;2.57;;;1.60;;
20334;SDS011;10325;51.468;5.804;2023-03-21T07:48:05;3.20;;;1.60;;
20334;SDS011;10325;51.468;5.804;2023-03-21T07:50:33;3.63;;;2.07;;
20334;SDS011;10325;51.468;5.804;2023-03-21T07:53:05;12.13;;;2.33;;
20334;SDS011;10325;51.468;5.804;2023-03-21T07:55:35;5.47;;;2.00;;
20334;SDS011;10325;51.468;5.804;2023-03-21T07:58:06;4.00;;;1.70;;
20334;SDS011;10325;51.468;5.804;2023-03-21T08:00:34;6.17;;;1.70;;
20334;SDS011;10325;51.468;5.804;2023-03-21T08:03:08;4.97;;;1.67;;
20334;SDS011;10325;51.468;5.804;2023-03-21T08:05:38;3.97;;;1.50;;
20334;SDS011;10325;51.468;5.804;2023-03-21T08:08:12;2.40;;;1.83;;
20334;SDS011;10325;51.468;5.804;2023-03-21T08:10:41;3.27;;;1.50;;
20334;SDS011;10325;51.468;5.804;2023-03-21T08:13:13;3.73;;;1.80;;
20334;SDS011;10325;51.468;5.804;2023-03-21T08:15:44;4.40;;;1.60;;
20334;SDS011;10325;51.468;5.804;2023-03-21T08:18:13;3.83;;;2.10;;
20334;SDS011;10325;51.468;5.804;2023-03-21T08:20:43;3.43;;;1.57;;
20334;SDS011;10325;51.468;5.804;2023-03-21T08:23:15;3.27;;;1.80;;
20334;SDS011;10325;51.468;5.804;2023-03-21T08:25:49;2.63;;;1.70;;
20334;SDS011;10325;51.468;5.804;2023-03-21T08:28:19;2.73;;;2.00;;
20334;SDS011;10325;51.468;5.804;2023-03-21T08:30:49;8.27;;;1.97;;
20334;SDS011;10325;51.468;5.804;2023-03-21T08:33:23;9.97;;;2.50;;
20334;SDS011;10325;51.468;5.804;2023-03-21T08:35:53;7.67;;;2.33;;
20334;SDS011;10325;51.468;5.804;2023-03-21T08:38:27;4.93;;;1.90;;
20334;SDS011;10325;51.468;5.804;2023-03-21T08:40:59;5.43;;;1.73;;
20334;SDS011;10325;51.468;5.804;2023-03-21T08:43:27;4.50;;;1.80;;
20334;SDS011;10325;51.468;5.804;2023-03-21T08:45:56;2.97;;;1.87;;
20334;SDS011;10325;51.468;5.804;2023-03-21T08:48:24;8.57;;;3.00;;
20334;SDS011;10325;51.468;5.804;2023-03-21T08:50:58;7.93;;;2.87;;
20334;SDS011;10325;51.468;5.804;2023-03-21T08:53:26;14.27;;;3.30;;
20334;SDS011;10325;51.468;5.804;2023-03-21T08:55:56;9.90;;;3.17;;
20334;SDS011;10325;51.468;5.804;2023-03-21T08:58:27;12.63;;;3.60;;
20334;SDS011;10325;51.468;5.804;2023-03-21T09:01:01;12.07;;;3.13;;
20334;SDS011;10325;51.468;5.804;2023-03-21T09:03:37;10.57;;;3.47;;
20334;SDS011;10325;51.468;5.804;2023-03-21T09:06:04;14.53;;;3.67;;
20334;SDS011;10325;51.468;5.804;2023-03-21T09:08:34;13.00;;;3.57;;
20334;SDS011;10325;51.468;5.804;2023-03-21T09:11:08;12.07;;;3.63;;
20334;SDS011;10325;51.468;5.804;2023-03-21T09:13:40;14.73;;;3.20;;
20334;SDS011;10325;51.468;5.804;2023-03-21T09:16:12;11.70;;;3.53;;
20334;SDS011;10325;51.468;5.804;2023-03-21T09:18:42;12.37;;;3.63;;
20334;SDS011;10325;51.468;5.804;2023-03-21T09:21:15;12.23;;;3.63;;
20334;SDS011;10325;51.468;5.804;2023-03-21T09:23:48;9.77;;;3.60;;
20334;SDS011;10325;51.468;5.804;2023-03-21T09:26:25;7.47;;;2.90;;
20334;SDS011;10325;51.468;5.804;2023-03-21T09:28:56;7.93;;;3.53;;
20334;SDS011;10325;51.468;5.804;2023-03-21T09:31:33;9.17;;;3.63;;
20334;SDS011;10325;51.468;5.804;2023-03-21T09:34:01;7.93;;;3.40;;
20334;SDS011;10325;51.468;5.804;2023-03-21T09:36:31;13.30;;;3.67;;
20334;SDS011;10325;51.468;5.804;2023-03-21T09:39:14;9.10;;;3.20;;
20334;SDS011;10325;51.468;5.804;2023-03-21T09:45:20;10.73;;;3.30;;
20334;SDS011;10325;51.468;5.804;2023-03-21T09:48:02;9.73;;;3.03;;
20334;SDS011;10325;51.468;5.804;2023-03-21T09:50:35;5.67;;;2.80;;
20334;SDS011;10325;51.468;5.804;2023-03-21T09:53:24;8.93;;;3.07;;
20334;SDS011;10325;51.468;5.804;2023-03-21T09:56:00;5.60;;;2.50;;
20334;SDS011;10325;51.468;5.804;2023-03-21T09:58:38;7.97;;;3.03;;
20334;SDS011;10325;51.468;5.804;2023-03-21T10:01:20;6.53;;;2.50;;
20334;SDS011;10325;51.468;5.804;2023-03-21T10:04:13;12.23;;;2.90;;
20334;SDS011;10325;51.468;5.804;2023-03-21T10:06:59;5.53;;;2.40;;
20334;SDS011;10325;51.468;5.804;2023-03-21T10:09:30;6.60;;;2.80;;
20334;SDS011;10325;51.468;5.804;2023-03-21T10:12:11;5.30;;;2.80;;
20334;SDS011;10325;51.468;5.804;2023-03-21T10:14:53;6.80;;;2.80;;
20334;SDS011;10325;51.468;5.804;2023-03-21T10:17:37;4.40;;;2.40;;
20334;SDS011;10325;51.468;5.804;2023-03-21T10:20:29;4.80;;;2.30;;
20334;SDS011;10325;51.468;5.804;2023-03-21T10:23:06;6.27;;;2.67;;
20334;SDS011;10325;51.468;5.804;2023-03-21T10:25:52;5.17;;;2.37;;
20334;SDS011;10325;51.468;5.804;2023-03-21T10:28:30;5.70;;;2.57;;
20334;SDS011;10325;51.468;5.804;2023-03-21T10:31:20;6.83;;;2.97;;
20334;SDS011;10325;51.468;5.804;2023-03-21T10:34:08;6.17;;;2.63;;
20334;SDS011;10325;51.468;5.804;2023-03-21T10:36:51;6.43;;;2.87;;
20334;SDS011;10325;51.468;5.804;2023-03-21T10:39:31;9.83;;;2.67;;
20334;SDS011;10325;51.468;5.804;2023-03-21T10:42:05;8.70;;;2.80;;
20334;SDS011;10325;51.468;5.804;2023-03-21T10:44:36;8.37;;;2.63;;
20334;SDS011;10325;51.468;5.804;2023-03-21T10:47:08;6.20;;;2.27;;
20334;SDS011;10325;51.468;5.804;2023-03-21T10:49:41;4.40;;;2.30;;
20334;SDS011;10325;51.468;5.804;2023-03-21T10:52:37;6.40;;;2.73;;
20334;SDS011;10325;51.468;5.804;2023-03-21T10:55:26;6.30;;;2.50;;
20334;SDS011;10325;51.468;5.804;2023-03-21T10:58:08;4.37;;;2.23;;
20334;SDS011;10325;51.468;5.804;2023-03-21T11:00:46;8.03;;;2.57;;
20334;SDS011;10325;51.468;5.804;2023-03-21T11:03:21;4.57;;;2.10;;
20334;SDS011;10325;51.468;5.804;2023-03-21T11:06:05;5.50;;;2.03;;
20334;SDS011;10325;51.468;5.804;2023-03-21T11:08:50;5.80;;;2.30;;
20334;SDS011;10325;51.468;5.804;2023-03-21T11:14:41;4.47;;;2.33;;
20334;SDS011;10325;51.468;5.804;2023-03-21T11:17:20;4.93;;;2.30;;
20334;SDS011;10325;51.468;5.804;2023-03-21T11:20:00;4.13;;;1.97;;
20334;SDS011;10325;51.468;5.804;2023-03-21T11:22:42;4.87;;;1.97;;
20334;SDS011;10325;51.468;5.804;2023-03-21T11:25:35;5.20;;;2.17;;
20334;SDS011;10325;51.468;5.804;2023-03-21T11:28:08;4.93;;;2.10;;
20334;SDS011;10325;51.468;5.804;2023-03-21T11:31:15;5.13;;;2.00;;
20334;SDS011;10325;51.468;5.804;2023-03-21T11:33:53;4.27;;;2.13;;
20334;SDS011;10325;51.468;5.804;2023-03-21T11:36:34;3.50;;;2.07;;
20334;SDS011;10325;51.468;5.804;2023-03-21T11:39:28;3.30;;;2.23;;
20334;SDS011;10325;51.468;5.804;2023-03-21T11:42:04;5.27;;;1.80;;
20334;SDS011;10325;51.468;5.804;2023-03-21T11:48:12;3.10;;;2.17;;
20334;SDS011;10325;51.468;5.804;2023-03-21T11:50:46;2.50;;;1.80;;
20334;SDS011;10325;51.468;5.804;2023-03-21T12:05:31;14.77;;;4.30;;
20334;SDS011;10325;51.468;5.804;2023-03-21T12:08:18;7.53;;;3.60;;
20334;SDS011;10325;51.468;5.804;2023-03-21T12:11:18;12.57;;;3.97;;
20334;SDS011;10325;51.468;5.804;2023-03-21T12:14:09;11.97;;;4.37;;
20334;SDS011;10325;51.468;5.804;2023-03-21T12:23:20;11.37;;;3.90;;
20334;SDS011;10325;51.468;5.804;2023-03-21T12:26:21;7.60;;;3.30;;
20334;SDS011;10325;51.468;5.804;2023-03-21T12:29:21;12.90;;;3.40;;
20334;SDS011;10325;51.468;5.804;2023-03-21T12:32:28;8.40;;;3.40;;
20334;SDS011;10325;51.468;5.804;2023-03-21T12:41:32;8.40;;;3.37;;
20334;SDS011;10325;51.468;5.804;2023-03-21T12:44:20;7.70;;;2.67;;
20334;SDS011;10325;51.468;5.804;2023-03-21T12:46:58;9.27;;;3.00;;
20334;SDS011;10325;51.468;5.804;2023-03-21T12:49:55;6.00;;;2.37;;
20334;SDS011;10325;51.468;5.804;2023-03-21T12:52:59;7.37;;;2.80;;
20334;SDS011;10325;51.468;5.804;2023-03-21T12:55:34;6.03;;;2.30;;
20334;SDS011;10325;51.468;5.804;2023-03-21T12:58:21;7.93;;;2.63;;
20334;SDS011;10325;51.468;5.804;2023-03-21T13:00:57;5.17;;;2.07;;
20334;SDS011;10325;51.468;5.804;2023-03-21T13:03:40;4.77;;;2.40;;
20334;SDS011;10325;51.468;5.804;2023-03-21T13:06:15;4.37;;;2.20;;
20334;SDS011;10325;51.468;5.804;2023-03-21T13:08:48;5.07;;;2.23;;
20334;SDS011;10325;51.468;5.804;2023-03-21T13:11:36;3.73;;;2.10;;
20334;SDS011;10325;51.468;5.804;2023-03-21T13:14:15;5.37;;;2.20;;
20334;SDS011;10325;51.468;5.804;2023-03-21T13:17:09;5.97;;;2.27;;
20334;SDS011;10325;51.468;5.804;2023-03-21T13:19:55;4.07;;;1.77;;
20334;SDS011;10325;51.468;5.804;2023-03-21T13:22:44;5.87;;;2.37;;
20334;SDS011;10325;51.468;5.804;2023-03-21T13:25:20;4.03;;;1.83;;
20334;SDS011;10325;51.468;5.804;2023-03-21T13:28:00;5.33;;;1.70;;
20334;SDS011;10325;51.468;5.804;2023-03-21T13:30:31;4.17;;;1.97;;
20334;SDS011;10325;51.468;5.804;2023-03-21T13:33:06;3.67;;;2.00;;
20334;SDS011;10325;51.468;5.804;2023-03-21T13:35:43;4.77;;;1.93;;
20334;SDS011;10325;51.468;5.804;2023-03-21T13:38:27;3.87;;;2.03;;
20334;SDS011;10325;51.468;5.804;2023-03-21T13:41:18;6.27;;;1.73;;
20334;SDS011;10325;51.468;5.804;2023-03-21T13:46:42;4.00;;;1.97;;
20334;SDS011;10325;51.468;5.804;2023-03-21T13:49:30;3.10;;;1.97;;
20334;SDS011;10325;51.468;5.804;2023-03-21T13:52:26;4.10;;;1.90;;
20334;SDS011;10325;51.468;5.804;2023-03-21T13:54:59;3.90;;;1.60;;
20334;SDS011;10325;51.468;5.804;2023-03-21T14:00:14;3.43;;;1.87;;
20334;SDS011;10325;51.468;5.804;2023-03-21T14:03:08;2.63;;;1.40;;
20334;SDS011;10325;51.468;5.804;2023-03-21T14:05:48;3.27;;;1.50;;
20334;SDS011;10325;51.468;5.804;2023-03-21T14:08:20;3.63;;;1.50;;
20334;SDS011;10325;51.468;5.804;2023-03-21T14:11:07;4.03;;;1.50;;
20334;SDS011;10325;51.468;5.804;2023-03-21T14:13:48;3.43;;;1.70;;
20334;SDS011;10325;51.468;5.804;2023-03-21T14:16:29;2.93;;;1.77;;
20334;SDS011;10325;51.468;5.804;2023-03-21T14:19:03;4.27;;;1.80;;
20334;SDS011;10325;51.468;5.804;2023-03-21T14:21:34;3.13;;;1.77;;
20334;SDS011;10325;51.468;5.804;2023-03-21T14:24:12;2.30;;;1.30;;
20334;SDS011;10325;51.468;5.804;2023-03-21T14:26:55;2.77;;;1.67;;
20334;SDS011;10325;51.468;5.804;2023-03-21T14:29:30;1.90;;;1.70;;
20334;SDS011;10325;51.468;5.804;2023-03-21T14:32:06;4.43;;;1.67;;
20334;SDS011;10325;51.468;5.804;2023-03-21T14:34:45;3.73;;;1.70;;
20334;SDS011;10325;51.468;5.804;2023-03-21T14:37:33;3.13;;;1.20;;
20334;SDS011;10325;51.468;5.804;2023-03-21T14:40:17;3.33;;;1.57;;
20334;SDS011;10325;51.468;5.804;2023-03-21T14:42:54;2.83;;;1.50;;
20334;SDS011;10325;51.468;5.804;2023-03-21T14:45:26;2.50;;;1.50;;
20334;SDS011;10325;51.468;5.804;2023-03-21T14:48:12;2.37;;;1.43;;
20334;SDS011;10325;51.468;5.804;2023-03-21T14:50:55;1.70;;;1.17;;
20334;SDS011;10325;51.468;5.804;2023-03-21T14:53:31;2.90;;;1.70;;
20334;SDS011;10325;51.468;5.804;2023-03-21T14:56:23;2.40;;;1.50;;
20334;SDS011;10325;51.468;5.804;2023-03-21T14:59:00;3.03;;;1.50;;
20334;SDS011;10325;51.468;5.804;2023-03-21T15:01:31;3.97;;;1.87;;
20334;SDS011;10325;51.468;5.804;2023-03-21T15:04:04;2.13;;;1.47;;
20334;SDS011;10325;51.468;5.804;2023-03-21T15:06:47;3.07;;;1.40;;
20334;SDS011;10325;51.468;5.804;2023-03-21T15:09:23;3.20;;;1.67;;
20334;SDS011;10325;51.468;5.804;2023-03-21T15:11:57;2.40;;;1.77;;
20334;SDS011;10325;51.468;5.804;2023-03-21T15:14:28;2.97;;;1.90;;
20334;SDS011;10325;51.468;5.804;2023-03-21T15:17:04;3.27;;;1.50;;
20334;SDS011;10325;51.468;5.804;2023-03-21T15:19:37;1.77;;;1.30;;
20334;SDS011;10325;51.468;5.804;2023-03-21T15:25:08;1.77;;;1.10;;
20334;SDS011;10325;51.468;5.804;2023-03-21T15:27:45;2.03;;;1.53;;
20334;SDS011;10325;51.468;5.804;2023-03-21T15:30:25;2.53;;;1.50;;
20334;SDS011;10325;51.468;5.804;2023-03-21T15:33:08;1.87;;;1.50;;
20334;SDS011;10325;51.468;5.804;2023-03-21T15:35:43;2.37;;;1.50;;
20334;SDS011;10325;51.468;5.804;2023-03-21T15:38:35;2.17;;;1.37;;
20334;SDS011;10325;51.468;5.804;2023-03-21T15:41:28;2.50;;;1.40;;
20334;SDS011;10325;51.468;5.804;2023-03-21T15:46:49;2.23;;;1.43;;
20334;SDS011;10325;51.468;5.804;2023-03-21T15:54:43;2.47;;;1.50;;
20334;SDS011;10325;51.468;5.804;2023-03-21T16:00:17;2.57;;;1.50;;
20334;SDS011;10325;51.468;5.804;2023-03-21T16:02:58;2.00;;;1.40;;
20334;SDS011;10325;51.468;5.804;2023-03-21T16:05:37;1.87;;;1.37;;
20334;SDS011;10325;51.468;5.804;2023-03-21T16:11:04;2.70;;;1.47;;
20334;SDS011;10325;51.468;5.804;2023-03-21T16:13:41;1.30;;;1.10;;
20334;SDS011;10325;51.468;5.804;2023-03-21T16:16:25;2.33;;;1.40;;
20334;SDS011;10325;51.468;5.804;2023-03-21T16:18:57;1.80;;;1.30;;
20334;SDS011;10325;51.468;5.804;2023-03-21T16:21:25;1.63;;;1.20;;
20334;SDS011;10325;51.468;5.804;2023-03-21T16:23:59;2.17;;;1.20;;
20334;SDS011;10325;51.468;5.804;2023-03-21T16:26:30;3.33;;;1.30;;
20334;SDS011;10325;51.468;5.804;2023-03-21T16:29:02;2.20;;;1.23;;
20334;SDS011;10325;51.468;5.804;2023-03-21T16:31:37;2.83;;;1.47;;
20334;SDS011;10325;51.468;5.804;2023-03-21T16:34:06;1.47;;;1.20;;
20334;SDS011;10325;51.468;5.804;2023-03-21T16:36:39;1.00;;;0.90;;
20334;SDS011;10325;51.468;5.804;2023-03-21T16:39:20;1.40;;;1.30;;
20334;SDS011;10325;51.468;5.804;2023-03-21T16:41:53;1.43;;;1.20;;
20334;SDS011;10325;51.468;5.804;2023-03-21T16:44:26;2.30;;;1.30;;
20334;SDS011;10325;51.468;5.804;2023-03-21T16:46:55;1.60;;;1.30;;
20334;SDS011;10325;51.468;5.804;2023-03-21T16:49:29;1.87;;;1.20;;
20334;SDS011;10325;51.468;5.804;2023-03-21T16:52:07;1.40;;;1.20;;
20334;SDS011;10325;51.468;5.804;2023-03-21T16:54:40;1.87;;;1.20;;
20334;SDS011;10325;51.468;5.804;2023-03-21T16:57:29;1.97;;;0.93;;
20334;SDS011;10325;51.468;5.804;2023-03-21T17:00:01;4.40;;;1.27;;
20334;SDS011;10325;51.468;5.804;2023-03-21T17:02:36;1.50;;;1.10;;
20334;SDS011;10325;51.468;5.804;2023-03-21T17:05:06;1.43;;;1.27;;
20334;SDS011;10325;51.468;5.804;2023-03-21T17:07:40;1.80;;;1.20;;
20334;SDS011;10325;51.468;5.804;2023-03-21T17:12:55;2.37;;;1.10;;
20334;SDS011;10325;51.468;5.804;2023-03-21T17:15:26;1.53;;;1.30;;
20334;SDS011;10325;51.468;5.804;2023-03-21T17:17:58;1.10;;;1.00;;
20334;SDS011;10325;51.468;5.804;2023-03-21T17:20:29;3.00;;;1.30;;
20334;SDS011;10325;51.468;5.804;2023-03-21T17:23:03;2.77;;;1.10;;
20334;SDS011;10325;51.468;5.804;2023-03-21T17:25:37;1.20;;;1.10;;